AirNav   Air Wisconsin Up To $57,000 Bonus
 
 999 users online  

3OK8 Flying G Ranch Airport
Sand Springs, Oklahoma, USA

GOING TO SAND SPRINGS?


FAA INFORMATION EFFECTIVE 03 NOVEMBER 2022

Location

FAA Identifier: 3OK8
Lat/Long: 36-07-00.2970N 096-14-01.0250W
36-07.004950N 096-14.017083W
36.1167492,-96.2336181
(estimated)
Elevation: 890 ft. / 271 m (estimated)
Variation: 06E (1985)
From city: 5 miles SW of SAND SPRINGS, OK
Time zone: UTC -6 (UTC -5 during Daylight Saving Time)
Zip code: 74063

Airport Operations

Airport use: Private use. Permission required prior to landing
Activation date: 03/1973
Control tower: no
ARTCC: KANSAS CITY CENTER
FSS: MC ALESTER FLIGHT SERVICE STATION
Attendance: UNATNDD
Wind indicator: yes
Segmented circle: no

Airport Communications

WX AWOS-3 at OWP (5 nm NE): 118.325 (918-246-2635)
WX ASOS at RVS (13 nm E): 126.5 (918-299-0740)
WX ASOS at TUL (17 nm E): PHONE 918-831-6772

Nearby radio navigation aids

VOR radial/distance  VOR name  Freq  Var
TULr250/22.1TULSA VORTAC114.4008E
OKMr317/31.1OKMULGEE VOR/DME114.9008E

Airport Services

Airframe service: NONE
Powerplant service: NONE

Runway Information

Runway 16/34

Dimensions: 2640 x 75 ft. / 805 x 23 m
Surface: turf
RUNWAY 16  RUNWAY 34
Traffic pattern: leftleft

Runway 13/31

Dimensions: 2230 x 75 ft. / 680 x 23 m
Surface: turf
RUNWAY 13  RUNWAY 31
Traffic pattern: leftleft

Airport Ownership and Management from official FAA records

Ownership: Privately-owned
Owner: LOTSEE E.L. SPRADLING
PO BOX 434
SAND SPRINGS, OK 74063
Phone 918-245-3316
Manager: LOTSEE E.L. SPRADLING
P.O. BOX 434
SAND SPRINGS, OK 74063
Phone 918-245-8854

Airport Operational Statistics

Aircraft based on the field: 2
Helicopters: 1
Ultralights: 1
    

Additional Remarks

FOR CD CTC TULSA APCH AT 918-831-6714/6720.

Instrument Procedures

There are no published instrument procedures at 3OK8.

Some nearby airports with instrument procedures:

KOWP - William R Pogue Municipal Airport (5 nm NE)
KRVS - Tulsa Riverside Airport (13 nm E)
KTUL - Tulsa International Airport (17 nm E)
3F7 - Jones Memorial Airport (21 nm SW)
KCUH - Cushing Municipal Airport (28 nm W)
 
Loc | Ops | Rwys | IFR | FBO | Links
Com | Nav | Svcs | Stats | Notes
Area around 3OK8 (Flying G Ranch Airport)
 
Road maps at: MapQuest Bing Google
 
Aerial photo
No photo
 
Sectional chart

 
Airport distance calculator
Flying to Flying G Ranch Airport? Find the distance to fly.

From to 3OK8

Sunrise and sunset
Times for 29-Nov-2022
 Local
(UTC-6)
 Zulu
(UTC)
Morning civil twilight06:4812:48
Sunrise07:1713:17
Sunset17:1023:10
Evening civil twilight17:3823:38

Current date and time
Zulu (UTC)  30-Nov-2022 00:33:55
Local (UTC-6)  29-Nov-2022 18:33:55
 
METAR
KOWP 
5nm NE 
300015Z AUTO 34010G19KT 10SM BKN025 OVC031 05/00 A2996 RMK AO2 T00530000
KRVS 
13nm E 
300002Z 33011G23KT 270V360 10SM BKN026 05/M01 A2992 RMK AO2 PRESRR T00501011
KTUL 
18nm E 
292353Z 33022G30KT 10SM OVC026 05/00 A2990 RMK AO2 PK WND 34030/2352 SLP124 T00500000 10222 20050 51069
TAF
KRVS 
13nm E 
291959Z 2920/3018 30013G23KT P6SM SKC FM292300 31013G22KT P6SM SCT030 FM300200 33012G20KT P6SM BKN120 FM300600 35007KT P6SM SKC
KTUL 
18nm E 
291959Z 2920/3018 31019G28KT P6SM SKC FM292300 32018G27KT P6SM SCT030 FM300200 33015G25KT P6SM BKN120 FM300600 34010KT P6SM SKC
NOTAMs
Click for the latest NOTAMs
NOTAMs are issued by the DoD/FAA and will open in a separate window not controlled by AirNav.

 

 
 

Would you like to see your business listed on this page?

 If your business provides an interesting product or service to pilots, flight crews, aircraft, or users of the Flying G Ranch Airport, you should consider listing it here.  To start the listing process, click on the button below
 
Add a business
 

Other Pages about Flying G Ranch Airport

Update a link
 
Copyright © AirNav, LLC. All rights reserved. Privacy Policy  Contact